createdAt,value
2023-02-23T00:02:06.378Z,-0.66
2023-02-23T00:04:36.932Z,-0.63
2023-02-23T00:07:07.170Z,-0.61
2023-02-23T00:09:37.580Z,-0.58
2023-02-23T00:12:10.826Z,-0.56
2023-02-23T00:14:40.742Z,-0.54
2023-02-23T00:17:15.401Z,-0.51
2023-02-23T00:19:58.869Z,-0.50
2023-02-23T00:22:28.694Z,-0.56
2023-02-23T00:25:00.151Z,-0.57
2023-02-23T00:27:30.210Z,-0.57
2023-02-23T00:30:00.762Z,-0.57
2023-02-23T00:32:31.424Z,-0.58
2023-02-23T00:35:01.405Z,-0.60
2023-02-23T00:37:31.616Z,-0.63
2023-02-23T00:40:01.410Z,-0.68
2023-02-23T00:42:33.340Z,-0.73
2023-02-23T00:45:13.196Z,-0.76
2023-02-23T00:47:45.747Z,-0.80
2023-02-23T00:50:18.665Z,-0.82
2023-02-23T00:52:49.377Z,-0.86
2023-02-23T00:55:20.135Z,-0.91
2023-02-23T00:57:51.180Z,-0.96
2023-02-23T01:00:22.451Z,-1.01
2023-02-23T01:02:57.796Z,-1.06
2023-02-23T01:05:28.220Z,-1.11
2023-02-23T01:07:57.635Z,-1.15
2023-02-23T01:10:27.883Z,-1.18
2023-02-23T01:12:58.745Z,-1.21
2023-02-23T01:15:29.487Z,-1.26
2023-02-23T01:17:59.299Z,-1.30
2023-02-23T01:20:29.288Z,-1.34
2023-02-23T01:22:58.779Z,-1.39
2023-02-23T01:25:29.880Z,-1.42
2023-02-23T01:28:02.162Z,-1.49
2023-02-23T01:30:32.823Z,-1.52
2023-02-23T01:33:03.168Z,-1.54
2023-02-23T01:35:33.785Z,-1.55
2023-02-23T01:38:05.229Z,-1.57
2023-02-23T01:40:37.727Z,-1.58
2023-02-23T01:43:12.497Z,-1.61
2023-02-23T01:45:46.520Z,-1.63
2023-02-23T01:48:21.320Z,-1.63
2023-02-23T01:50:55.077Z,-1.61
2023-02-23T01:53:28.718Z,-1.57
2023-02-23T01:56:01.859Z,-1.51
2023-02-23T01:58:34.197Z,-1.47
2023-02-23T02:01:06.004Z,-1.42
2023-02-23T02:03:53.709Z,-1.38
2023-02-23T02:06:29.424Z,-1.33
2023-02-23T02:09:07.020Z,-1.30
2023-02-23T02:11:37.888Z,-1.28
2023-02-23T02:14:13.599Z,-1.26
2023-02-23T02:16:53.376Z,-1.23
2023-02-23T02:19:40.828Z,-1.22
2023-02-23T02:22:33.250Z,-1.24
2023-02-23T02:25:43.464Z,-1.27
2023-02-23T02:28:35.030Z,-1.31
2023-02-23T02:31:24.494Z,-1.35
2023-02-23T02:33:54.507Z,-1.42
2023-02-23T02:36:43.108Z,-1.47
2023-02-23T02:39:54.260Z,-1.52
2023-02-23T02:42:46.129Z,-1.57
2023-02-23T02:45:38.927Z,-1.61
2023-02-23T02:48:26.233Z,-1.65
2023-02-23T02:51:20.513Z,-1.69
2023-02-23T02:54:25.706Z,-1.74
2023-02-23T02:57:00.899Z,-1.80
2023-02-23T02:59:50.795Z,-1.84
2023-02-23T03:02:41.937Z,-1.88
2023-02-23T03:05:36.686Z,-1.91
2023-02-23T03:09:07.603Z,-1.96
2023-02-23T03:12:03.423Z,-2.00
2023-02-23T03:15:09.003Z,-2.04
2023-02-23T03:18:08.793Z,-2.11
2023-02-23T03:21:10.212Z,-2.16
2023-02-23T03:24:23.983Z,-2.19
2023-02-23T03:27:36.520Z,-2.21
2023-02-23T03:30:43.043Z,-2.22
2023-02-23T03:33:38.905Z,-2.24
2023-02-23T03:36:40.635Z,-2.25
2023-02-23T03:39:46.743Z,-2.26
2023-02-23T03:42:40.265Z,-2.27
2023-02-23T03:45:40.068Z,-2.27
2023-02-23T03:48:31.729Z,-2.27
2023-02-23T03:51:26.036Z,-2.21
2023-02-23T03:54:17.893Z,-2.15
2023-02-23T03:57:11.744Z,-2.10
2023-02-23T04:00:06.796Z,-2.05
2023-02-23T04:03:07.257Z,-2.01
2023-02-23T04:05:59.476Z,-1.97
2023-02-23T04:08:53.001Z,-1.93
2023-02-23T04:11:57.660Z,-1.93
2023-02-23T04:14:54.713Z,-1.93
2023-02-23T04:17:29.756Z,-1.88
2023-02-23T04:19:59.378Z,-1.88
2023-02-23T04:22:29.802Z,-1.89
2023-02-23T04:25:00.360Z,-1.91
2023-02-23T04:27:31.631Z,-1.91
2023-02-23T04:30:00.850Z,-1.91
2023-02-23T04:32:32.203Z,-1.91
2023-02-23T04:35:04.877Z,-1.92
2023-02-23T04:37:37.464Z,-1.94
2023-02-23T04:40:09.258Z,-2.00
2023-02-23T04:42:41.550Z,-2.06
2023-02-23T04:45:11.613Z,-2.11
2023-02-23T04:47:41.888Z,-2.17
2023-02-23T04:50:12.796Z,-2.22
2023-02-23T04:52:43.814Z,-2.26
2023-02-23T04:55:19.663Z,-2.32
2023-02-23T04:57:51.289Z,-2.38
2023-02-23T05:00:21.903Z,-2.41
2023-02-23T05:02:52.356Z,-2.44
2023-02-23T05:05:22.538Z,-2.47
2023-02-23T05:07:55.657Z,-2.49
2023-02-23T05:10:25.292Z,-2.51
2023-02-23T05:12:55.868Z,-2.52
2023-02-23T05:15:25.658Z,-2.54
2023-02-23T05:17:56.395Z,-2.56
2023-02-23T05:20:26.426Z,-2.58
2023-02-23T05:22:59.788Z,-2.60
2023-02-23T05:25:30.302Z,-2.61
2023-02-23T05:28:04.159Z,-2.65
2023-02-23T05:30:43.164Z,-2.66
2023-02-23T05:33:16.671Z,-2.65
2023-02-23T05:35:47.507Z,-2.67
2023-02-23T05:38:18.237Z,-2.66
2023-02-23T05:40:51.886Z,-2.65
2023-02-23T05:43:21.644Z,-2.62
2023-02-23T05:45:51.653Z,-2.59
2023-02-23T05:48:21.723Z,-2.56
2023-02-23T05:50:52.870Z,-2.51
2023-02-23T05:53:31.270Z,-2.42
2023-02-23T05:56:14.611Z,-2.34
2023-02-23T05:58:43.683Z,-2.27
2023-02-23T06:01:14.644Z,-2.20
2023-02-23T06:03:46.477Z,-2.10
2023-02-23T06:06:16.479Z,-1.99
2023-02-23T06:08:50.293Z,-1.88
2023-02-23T06:11:21.068Z,-1.76
2023-02-23T06:13:51.193Z,-1.65
2023-02-23T06:16:21.453Z,-1.55
2023-02-23T06:19:03.589Z,-1.48
2023-02-23T06:22:00.225Z,-1.37
2023-02-23T06:24:32.031Z,-1.31
2023-02-23T06:27:05.964Z,-1.26
2023-02-23T06:29:35.512Z,-1.22
2023-02-23T06:32:08.118Z,-1.16
2023-02-23T06:34:38.795Z,-1.09
2023-02-23T06:37:12.656Z,-1.01
2023-02-23T06:39:42.475Z,-0.89
2023-02-23T06:42:16.065Z,-0.75
2023-02-23T06:44:46.308Z,-0.63
2023-02-23T06:47:15.553Z,-0.52
2023-02-23T06:49:45.989Z,-0.40
2023-02-23T06:52:16.554Z,-0.29
2023-02-23T06:54:48.839Z,-0.19
2023-02-23T06:57:21.915Z,-0.10
2023-02-23T06:59:53.727Z,0.00
2023-02-23T07:02:23.126Z,0.10
2023-02-23T07:04:55.216Z,0.19
2023-02-23T07:07:25.495Z,0.29
2023-02-23T07:09:55.513Z,0.37
2023-02-23T07:12:24.694Z,0.44
2023-02-23T07:14:54.900Z,0.52
2023-02-23T07:17:24.993Z,0.63
2023-02-23T07:19:55.990Z,0.71
2023-02-23T07:22:30.653Z,0.81
2023-02-23T07:25:00.318Z,0.92
2023-02-23T07:27:32.687Z,1.04
2023-02-23T07:30:05.905Z,1.15
2023-02-23T07:32:35.746Z,1.27
2023-02-23T07:35:08.489Z,1.40
2023-02-23T07:37:43.684Z,1.55
2023-02-23T07:40:17.036Z,1.68
2023-02-23T07:42:49.464Z,1.84
2023-02-23T07:45:19.473Z,2.00
2023-02-23T07:47:53.066Z,2.14
2023-02-23T07:50:26.771Z,2.31
2023-02-23T07:53:00.534Z,2.47
2023-02-23T07:55:31.316Z,2.65
2023-02-23T07:58:00.564Z,2.83
2023-02-23T08:00:37.410Z,3.02
2023-02-23T08:03:07.992Z,3.19
2023-02-23T08:05:40.538Z,3.38
2023-02-23T08:08:11.694Z,3.59
2023-02-23T08:10:41.951Z,3.80
2023-02-23T08:13:13.552Z,4.02
2023-02-23T08:15:44.716Z,4.23
2023-02-23T08:18:14.311Z,4.38
2023-02-23T08:20:43.520Z,4.55
2023-02-23T08:23:13.572Z,4.75
2023-02-23T08:25:45.016Z,4.93
2023-02-23T08:28:16.689Z,5.12
2023-02-23T08:30:50.491Z,5.28
2023-02-23T08:33:32.753Z,5.47
2023-02-23T08:36:03.638Z,5.63
2023-02-23T08:38:33.233Z,5.82
2023-02-23T08:41:07.867Z,5.98
2023-02-23T08:43:39.912Z,6.08
2023-02-23T08:46:11.708Z,6.13
2023-02-23T08:48:41.413Z,6.18
2023-02-23T08:51:11.480Z,6.31
2023-02-23T08:53:41.973Z,6.43
2023-02-23T08:56:13.786Z,6.54
2023-02-23T08:58:44.086Z,6.67
2023-02-23T09:01:24.465Z,6.78
2023-02-23T09:04:00.851Z,6.93
2023-02-23T09:06:36.086Z,7.06
2023-02-23T09:09:06.294Z,7.21
2023-02-23T09:11:40.859Z,7.32
2023-02-23T09:14:11.085Z,7.44
2023-02-23T09:16:49.706Z,7.60
2023-02-23T09:19:23.014Z,7.75
2023-02-23T09:21:53.750Z,7.90
2023-02-23T09:24:27.781Z,8.07
2023-02-23T09:26:59.956Z,8.26
2023-02-23T09:29:44.353Z,8.43
2023-02-23T09:32:13.913Z,8.64
2023-02-23T09:35:04.516Z,8.86
2023-02-23T09:37:35.252Z,9.08
2023-02-23T09:40:14.318Z,9.25
2023-02-23T09:43:10.779Z,9.48
2023-02-23T09:45:58.342Z,9.72
2023-02-23T09:48:31.252Z,10.01
2023-02-23T09:51:17.150Z,10.27
2023-02-23T09:54:06.335Z,10.52
2023-02-23T09:56:56.760Z,10.68
2023-02-23T09:59:32.745Z,10.86
2023-02-23T10:02:31.531Z,10.97
2023-02-23T10:05:18.911Z,11.06
2023-02-23T10:08:21.868Z,11.15
2023-02-23T10:11:47.127Z,11.26
2023-02-23T10:14:55.922Z,11.46
2023-02-23T10:17:43.741Z,11.62
2023-02-23T10:20:28.556Z,11.75
2023-02-23T10:23:27.055Z,11.86
2023-02-23T10:26:02.712Z,12.10
2023-02-23T10:28:47.739Z,12.29
2023-02-23T10:31:43.849Z,12.57
2023-02-23T10:34:32.458Z,12.90
2023-02-23T10:37:18.288Z,13.15
2023-02-23T10:39:57.049Z,13.39
2023-02-23T10:42:36.458Z,13.67
2023-02-23T10:45:24.887Z,13.94
2023-02-23T10:47:59.745Z,14.11
2023-02-23T10:50:34.137Z,14.14
2023-02-23T10:53:27.777Z,14.16
2023-02-23T10:56:15.574Z,14.34
2023-02-23T10:58:58.497Z,14.52
2023-02-23T11:02:00.789Z,14.69
2023-02-23T11:04:35.879Z,14.83
2023-02-23T11:07:22.336Z,14.98
2023-02-23T11:09:54.671Z,15.26
2023-02-23T11:12:45.633Z,15.44
2023-02-23T11:15:48.049Z,15.66
2023-02-23T11:18:24.429Z,15.88
2023-02-23T11:20:56.686Z,16.15
2023-02-23T11:23:58.539Z,16.35
2023-02-23T11:26:34.384Z,16.46
2023-02-23T11:29:26.224Z,16.47
2023-02-23T11:31:59.660Z,16.62
2023-02-23T11:34:41.332Z,16.76
2023-02-23T11:37:24.342Z,16.89
2023-02-23T11:39:58.099Z,17.03
2023-02-23T11:42:33.869Z,17.23
2023-02-23T11:45:17.217Z,17.37
2023-02-23T11:47:54.016Z,17.33
2023-02-23T11:50:34.147Z,17.37
2023-02-23T11:53:19.773Z,17.23
2023-02-23T11:55:59.005Z,17.19
2023-02-23T11:58:51.725Z,17.22
2023-02-23T12:01:53.307Z,17.42
2023-02-23T12:04:38.061Z,17.41
2023-02-23T12:07:40.690Z,17.41
2023-02-23T12:10:26.322Z,17.24
2023-02-23T12:13:27.433Z,17.26
2023-02-23T12:16:10.862Z,17.20
2023-02-23T12:18:53.028Z,17.21
2023-02-23T12:21:57.166Z,17.20
2023-02-23T12:24:35.005Z,17.01
2023-02-23T12:27:32.900Z,17.03
2023-02-23T12:30:42.662Z,16.94
2023-02-23T12:33:30.678Z,16.90
2023-02-23T12:36:04.719Z,16.92
2023-02-23T12:38:51.995Z,16.84
2023-02-23T12:41:50.426Z,16.84
2023-02-23T12:44:51.522Z,16.84
2023-02-23T12:47:37.311Z,16.84
2023-02-23T12:50:33.250Z,16.61
2023-02-23T12:53:34.397Z,16.41
2023-02-23T12:56:24.737Z,16.31
2023-02-23T12:59:26.192Z,16.27
2023-02-23T13:02:20.015Z,16.18
2023-02-23T13:05:15.997Z,16.03
2023-02-23T13:08:27.318Z,15.95
2023-02-23T13:11:33.676Z,15.88
2023-02-23T13:14:30.872Z,15.92
2023-02-23T13:17:11.796Z,16.06
2023-02-23T13:19:59.203Z,16.04
2023-02-23T13:23:11.363Z,16.07
2023-02-23T13:25:51.097Z,16.20
2023-02-23T13:28:44.497Z,16.32
2023-02-23T13:31:36.785Z,16.21
2023-02-23T13:34:26.277Z,15.97
2023-02-23T13:36:57.851Z,16.06
2023-02-23T13:39:48.253Z,16.10
2023-02-23T13:42:49.415Z,16.15
2023-02-23T13:45:52.804Z,16.30
2023-02-23T13:49:05.495Z,16.38
2023-02-23T13:51:49.931Z,16.38
2023-02-23T13:54:34.953Z,16.47
2023-02-23T13:57:17.324Z,16.50
2023-02-23T13:59:47.972Z,16.47
2023-02-23T14:02:41.412Z,16.49
2023-02-23T14:05:19.140Z,16.42
2023-02-23T14:07:54.390Z,16.29
2023-02-23T14:10:46.593Z,16.13
2023-02-23T14:13:17.511Z,16.09
2023-02-23T14:16:10.047Z,16.09
2023-02-23T14:19:10.916Z,16.09
2023-02-23T14:21:53.063Z,16.07
2023-02-23T14:24:25.573Z,15.82
2023-02-23T14:27:10.015Z,15.74
2023-02-23T14:29:45.970Z,15.82
2023-02-23T14:32:16.454Z,15.81
2023-02-23T14:34:52.444Z,15.89
2023-02-23T14:37:26.913Z,16.01
2023-02-23T14:40:09.423Z,16.21
2023-02-23T14:42:40.655Z,16.35
2023-02-23T14:45:20.880Z,16.20
2023-02-23T14:47:55.732Z,16.04
2023-02-23T14:50:34.028Z,15.80
2023-02-23T14:53:09.167Z,15.65
2023-02-23T14:55:43.852Z,15.39
2023-02-23T14:58:40.329Z,15.06
2023-02-23T15:01:10.062Z,14.72
2023-02-23T15:03:39.475Z,14.42
2023-02-23T15:06:12.237Z,14.34
2023-02-23T15:08:46.235Z,14.21
2023-02-23T15:11:23.049Z,14.16
2023-02-23T15:13:54.521Z,14.09
2023-02-23T15:16:35.927Z,14.03
2023-02-23T15:19:07.988Z,13.92
2023-02-23T15:21:40.236Z,13.80
2023-02-23T15:24:21.984Z,13.64
2023-02-23T15:26:53.073Z,13.51
2023-02-23T15:29:27.199Z,13.39
2023-02-23T15:32:15.332Z,13.25
2023-02-23T15:34:44.905Z,13.10
2023-02-23T15:37:25.522Z,12.93
2023-02-23T15:40:04.316Z,12.73
2023-02-23T15:42:45.368Z,12.57
2023-02-23T15:45:43.342Z,12.41
2023-02-23T15:48:18.980Z,12.24
2023-02-23T15:50:53.627Z,12.06
2023-02-23T15:53:42.015Z,11.86
2023-02-23T15:56:20.896Z,11.67
2023-02-23T15:58:57.289Z,11.47
2023-02-23T16:01:30.868Z,11.27
2023-02-23T16:04:09.647Z,11.07
2023-02-23T16:06:51.473Z,10.87
2023-02-23T16:09:26.754Z,10.65
2023-02-23T16:12:09.831Z,10.46
2023-02-23T16:14:50.360Z,10.26
2023-02-23T16:17:27.268Z,10.07
2023-02-23T16:20:24.772Z,9.89
2023-02-23T16:22:55.538Z,9.69
2023-02-23T16:25:29.035Z,9.53
2023-02-23T16:28:10.352Z,9.40
2023-02-23T16:30:43.884Z,9.29
2023-02-23T16:33:26.927Z,9.19
2023-02-23T16:36:11.437Z,9.05
2023-02-23T16:38:49.825Z,8.95
2023-02-23T16:41:23.197Z,8.83
2023-02-23T16:43:55.907Z,8.70
2023-02-23T16:46:56.651Z,8.59
2023-02-23T16:49:25.945Z,8.45
2023-02-23T16:52:00.660Z,8.36
2023-02-23T16:54:29.937Z,8.24
2023-02-23T16:56:59.768Z,8.06
2023-02-23T16:59:36.682Z,7.93
2023-02-23T17:02:10.627Z,7.82
2023-02-23T17:04:40.002Z,7.71
2023-02-23T17:07:09.233Z,7.60
2023-02-23T17:09:44.195Z,7.46
2023-02-23T17:12:23.063Z,7.34
2023-02-23T17:14:55.360Z,7.25
2023-02-23T17:17:24.893Z,7.15
2023-02-23T17:19:54.152Z,7.05
2023-02-23T17:22:23.827Z,6.94
2023-02-23T17:24:53.912Z,6.84
2023-02-23T17:27:23.194Z,6.74
2023-02-23T17:30:01.045Z,6.64
2023-02-23T17:32:48.851Z,6.54
2023-02-23T17:35:35.696Z,6.44
2023-02-23T17:38:13.245Z,6.36
2023-02-23T17:40:42.474Z,6.28
2023-02-23T17:43:12.104Z,6.19
2023-02-23T17:45:50.162Z,6.10
2023-02-23T17:48:29.206Z,5.93
2023-02-23T17:51:09.508Z,5.83
2023-02-23T17:53:56.651Z,5.74
2023-02-23T17:56:27.107Z,5.67
2023-02-23T17:58:59.340Z,5.59
2023-02-23T18:01:28.729Z,5.51
2023-02-23T18:04:07.316Z,5.41
2023-02-23T18:06:36.420Z,5.35
2023-02-23T18:09:17.472Z,5.27
2023-02-23T18:12:04.140Z,5.19
2023-02-23T18:14:51.440Z,5.13
2023-02-23T18:17:21.042Z,5.09
2023-02-23T18:19:53.396Z,5.02
2023-02-23T18:22:28.213Z,4.94
2023-02-23T18:25:00.566Z,4.83
2023-02-23T18:27:30.637Z,4.75
2023-02-23T18:30:00.311Z,4.70
2023-02-23T18:32:31.577Z,4.65
2023-02-23T18:35:20.393Z,4.56
2023-02-23T18:37:50.224Z,4.52
2023-02-23T18:40:48.072Z,4.44
2023-02-23T18:43:26.369Z,4.38
2023-02-23T18:46:16.818Z,4.29
2023-02-23T18:49:12.884Z,4.24
2023-02-23T18:51:43.369Z,4.18
2023-02-23T18:54:34.395Z,4.12
2023-02-23T18:57:16.858Z,4.07
2023-02-23T18:59:53.098Z,4.04
2023-02-23T19:02:31.543Z,4.02
2023-02-23T19:05:33.485Z,3.97
2023-02-23T19:08:21.220Z,3.89
2023-02-23T19:11:01.513Z,3.79
2023-02-23T19:13:43.932Z,3.74
2023-02-23T19:16:38.618Z,3.72
2023-02-23T19:19:13.926Z,3.66
2023-02-23T19:21:52.052Z,3.60
2023-02-23T19:24:37.031Z,3.56
2023-02-23T19:27:11.501Z,3.51
2023-02-23T19:29:44.576Z,3.47
2023-02-23T19:32:24.001Z,3.44
2023-02-23T19:34:59.051Z,3.42
2023-02-23T19:37:30.249Z,3.41
2023-02-23T19:40:01.290Z,3.41
2023-02-23T19:42:41.121Z,3.39
2023-02-23T19:45:19.282Z,3.40
2023-02-23T19:47:56.981Z,3.40
2023-02-23T19:50:41.633Z,3.41
2023-02-23T19:53:19.453Z,3.42
2023-02-23T19:56:12.981Z,3.43
2023-02-23T19:59:00.505Z,3.49
2023-02-23T20:01:44.170Z,3.52
2023-02-23T20:04:30.344Z,3.53
2023-02-23T20:07:19.621Z,3.55
2023-02-23T20:12:46.882Z,3.44
2023-02-23T20:15:20.370Z,3.40
2023-02-23T20:17:49.271Z,3.30
2023-02-23T20:20:23.445Z,3.22
2023-02-23T20:22:59.303Z,3.14
2023-02-23T20:25:43.812Z,3.06
2023-02-23T20:28:18.280Z,2.98
2023-02-23T20:30:49.312Z,2.93
2023-02-23T20:33:20.335Z,2.86
2023-02-23T20:35:52.430Z,2.81
2023-02-23T20:38:29.481Z,2.76
2023-02-23T20:41:04.282Z,2.72
2023-02-23T20:43:45.766Z,2.67
2023-02-23T20:46:22.675Z,2.62
2023-02-23T20:48:59.052Z,2.58
2023-02-23T20:51:31.302Z,2.51
2023-02-23T20:54:04.265Z,2.43
2023-02-23T20:56:39.051Z,2.39
2023-02-23T20:59:19.814Z,2.35
2023-02-23T21:01:52.523Z,2.29
2023-02-23T21:04:22.067Z,2.23
2023-02-23T21:06:52.518Z,2.19
2023-02-23T21:09:37.993Z,2.14
2023-02-23T21:12:17.003Z,2.08
2023-02-23T21:14:50.514Z,2.04
2023-02-23T21:17:21.200Z,1.99
2023-02-23T21:19:57.855Z,1.94
2023-02-23T21:22:29.540Z,1.90
2023-02-23T21:25:01.055Z,1.86
2023-02-23T21:27:33.204Z,1.86
2023-02-23T21:30:10.997Z,1.86
2023-02-23T21:32:44.315Z,1.83
2023-02-23T21:35:16.118Z,1.78
2023-02-23T21:37:47.533Z,1.74
2023-02-23T21:40:21.460Z,1.72
2023-02-23T21:42:52.728Z,1.72
2023-02-23T21:45:22.186Z,1.71
2023-02-23T21:47:53.198Z,1.71
2023-02-23T21:50:23.216Z,1.73
2023-02-23T21:52:56.411Z,1.72
2023-02-23T21:55:27.588Z,1.70
2023-02-23T21:57:58.941Z,1.65
2023-02-23T22:00:31.495Z,1.61
2023-02-23T22:03:02.197Z,1.57
2023-02-23T22:05:35.514Z,1.53
2023-02-23T22:08:04.692Z,1.49
2023-02-23T22:10:35.117Z,1.42
2023-02-23T22:13:05.391Z,1.37
2023-02-23T22:15:37.206Z,1.31
2023-02-23T22:18:06.416Z,1.23
2023-02-23T22:20:36.273Z,1.16
2023-02-23T22:23:07.126Z,1.09
2023-02-23T22:25:36.350Z,1.04
2023-02-23T22:28:09.484Z,0.99
2023-02-23T22:30:44.861Z,0.94
2023-02-23T22:33:15.247Z,0.88
2023-02-23T22:35:47.546Z,0.81
2023-02-23T22:38:19.633Z,0.77
2023-02-23T22:40:48.801Z,0.73
2023-02-23T22:43:22.451Z,0.67
2023-02-23T22:45:57.407Z,0.62
2023-02-23T22:48:28.956Z,0.60
2023-02-23T22:51:00.424Z,0.59
2023-02-23T22:53:31.595Z,0.58
2023-02-23T22:56:04.676Z,0.54
2023-02-23T22:58:36.582Z,0.50
2023-02-23T23:01:06.897Z,0.48
2023-02-23T23:03:40.515Z,0.47
2023-02-23T23:06:14.004Z,0.44
2023-02-23T23:08:46.117Z,0.44
2023-02-23T23:11:36.769Z,0.43
2023-02-23T23:14:11.464Z,0.44
2023-02-23T23:16:48.694Z,0.46
2023-02-23T23:19:26.379Z,0.50
2023-02-23T23:21:56.144Z,0.53
2023-02-23T23:24:26.180Z,0.56
2023-02-23T23:27:09.685Z,0.55
2023-02-23T23:29:41.156Z,0.52
2023-02-23T23:32:40.471Z,0.51
2023-02-23T23:35:16.067Z,0.50
2023-02-23T23:37:46.508Z,0.47
2023-02-23T23:40:16.510Z,0.46
2023-02-23T23:42:48.432Z,0.44
2023-02-23T23:45:24.619Z,0.41
2023-02-23T23:47:55.205Z,0.39
2023-02-23T23:50:27.570Z,0.36
2023-02-23T23:52:57.361Z,0.31
2023-02-23T23:55:31.707Z,0.26
2023-02-23T23:58:00.846Z,0.21
